createdAt,value
2018-09-18T00:00:05.568Z,2.50
2018-09-18T00:01:05.551Z,2.60
2018-09-18T00:02:05.530Z,3.00
2018-09-18T00:03:05.512Z,2.80
2018-09-18T00:04:05.499Z,2.70
2018-09-18T00:05:05.476Z,2.40
2018-09-18T00:06:05.461Z,2.60
2018-09-18T00:07:05.452Z,2.50
2018-09-18T00:08:05.421Z,2.80
2018-09-18T00:09:05.415Z,2.70
2018-09-18T00:10:05.391Z,3.00
2018-09-18T00:11:05.370Z,2.80
2018-09-18T00:12:05.363Z,2.60
2018-09-18T00:13:05.336Z,2.50
2018-09-18T00:14:05.323Z,2.80
2018-09-18T00:15:05.311Z,2.90
2018-09-18T00:16:05.291Z,2.60
2018-09-18T00:17:05.273Z,2.80
2018-09-18T00:18:05.253Z,2.80
2018-09-18T00:19:05.239Z,3.00
2018-09-18T00:20:05.221Z,2.80
2018-09-18T00:21:05.197Z,2.70
2018-09-18T00:22:05.186Z,2.90
2018-09-18T00:23:05.172Z,3.10
2018-09-18T00:24:05.152Z,2.80
2018-09-18T00:25:05.132Z,2.60
2018-09-18T00:26:05.114Z,2.90
2018-09-18T00:27:05.099Z,2.80
2018-09-18T00:28:05.084Z,2.90
2018-09-18T00:29:05.074Z,2.80
2018-09-18T00:30:05.059Z,2.90
2018-09-18T00:31:05.034Z,2.80
2018-09-18T00:32:05.028Z,2.50
2018-09-18T00:33:05.006Z,2.60
2018-09-18T00:34:04.980Z,2.90
2018-09-18T00:35:04.960Z,2.80
2018-09-18T00:36:04.943Z,2.70
2018-09-18T00:37:04.941Z,3.30
2018-09-18T00:38:04.903Z,2.70
2018-09-18T00:39:04.889Z,2.60
2018-09-18T00:40:04.878Z,2.50
2018-09-18T00:41:04.862Z,2.80
2018-09-18T00:42:04.846Z,2.80
2018-09-18T00:43:04.827Z,2.70
2018-09-18T00:44:04.802Z,2.60
2018-09-18T00:45:04.780Z,2.50
2018-09-18T00:46:04.770Z,2.70
2018-09-18T00:47:04.747Z,2.60
2018-09-18T00:48:04.735Z,2.60
2018-09-18T00:49:04.718Z,3.10
2018-09-18T00:50:04.697Z,2.70
2018-09-18T00:51:04.684Z,2.70
2018-09-18T00:52:04.666Z,2.70
2018-09-18T00:53:04.654Z,2.70
2018-09-18T00:54:04.632Z,2.80
2018-09-18T00:55:04.614Z,3.00
2018-09-18T00:56:04.605Z,2.90
2018-09-18T00:57:04.574Z,2.50
2018-09-18T00:58:04.564Z,2.60
2018-09-18T00:59:04.550Z,2.70
2018-09-18T01:00:04.524Z,2.50
2018-09-18T01:01:04.519Z,2.50
2018-09-18T01:02:04.493Z,3.00
2018-09-18T01:03:04.473Z,2.70
2018-09-18T01:04:04.461Z,2.60
2018-09-18T01:05:04.444Z,2.70
2018-09-18T01:06:04.421Z,2.80
2018-09-18T01:07:04.406Z,2.60
2018-09-18T01:08:04.389Z,2.80
2018-09-18T01:09:04.369Z,2.30
2018-09-18T01:10:04.356Z,2.40
2018-09-18T01:11:04.334Z,2.40
2018-09-18T01:12:04.318Z,2.80
2018-09-18T01:13:04.302Z,2.50
2018-09-18T01:14:04.281Z,2.60
2018-09-18T01:15:04.269Z,2.50
2018-09-18T01:16:04.250Z,2.40
2018-09-18T01:17:04.230Z,2.90
2018-09-18T01:18:04.213Z,2.70
2018-09-18T01:19:11.143Z,2.50
2018-09-18T01:20:04.178Z,2.70
2018-09-18T01:21:04.164Z,2.40
2018-09-18T01:22:04.142Z,2.30
2018-09-18T01:23:04.127Z,2.30
2018-09-18T01:24:04.111Z,2.70
2018-09-18T01:25:04.093Z,2.70
2018-09-18T01:26:04.075Z,2.60
2018-09-18T01:27:04.055Z,2.50
2018-09-18T01:28:04.038Z,2.40
2018-09-18T01:29:04.149Z,2.20
2018-09-18T01:30:04.002Z,2.70
2018-09-18T01:31:03.990Z,2.40
2018-09-18T01:32:03.972Z,2.40
2018-09-18T01:33:03.954Z,2.40
2018-09-18T01:34:03.936Z,2.50
2018-09-18T01:35:03.919Z,2.40
2018-09-18T01:36:03.902Z,2.40
2018-09-18T01:37:03.881Z,2.70
2018-09-18T01:38:03.866Z,2.50
2018-09-18T01:39:03.856Z,2.50
2018-09-18T01:40:03.832Z,2.60
2018-09-18T01:41:03.809Z,2.60
2018-09-18T01:42:03.798Z,2.40
2018-09-18T01:43:03.779Z,2.30
2018-09-18T01:44:03.764Z,2.50
2018-09-18T01:45:03.742Z,2.60
2018-09-18T01:46:03.727Z,2.60
2018-09-18T01:47:03.708Z,2.30
2018-09-18T01:48:03.697Z,2.30
2018-09-18T01:49:03.676Z,2.30
2018-09-18T01:50:03.662Z,2.20
2018-09-18T01:51:03.643Z,2.60
2018-09-18T01:52:03.621Z,2.30
2018-09-18T01:53:03.604Z,2.50
2018-09-18T01:54:03.588Z,2.40
2018-09-18T01:55:03.570Z,2.20
2018-09-18T01:56:03.556Z,2.30
2018-09-18T01:57:03.542Z,2.40
2018-09-18T01:58:03.523Z,2.50
2018-09-18T01:59:03.501Z,2.40
2018-09-18T02:00:03.496Z,2.20
2018-09-18T02:01:03.467Z,2.40
2018-09-18T02:02:03.451Z,2.40
2018-09-18T02:03:03.435Z,2.20
2018-09-18T02:04:03.415Z,2.30
2018-09-18T02:05:03.407Z,2.50
2018-09-18T02:06:03.380Z,2.50
2018-09-18T02:07:03.365Z,2.40
2018-09-18T02:08:03.347Z,2.50
2018-09-18T02:09:03.329Z,2.40
2018-09-18T02:10:03.308Z,2.40
2018-09-18T02:11:03.288Z,2.50
2018-09-18T02:12:03.275Z,2.40
2018-09-18T02:13:03.256Z,2.60
2018-09-18T02:14:03.241Z,2.30
2018-09-18T02:15:03.231Z,2.30
2018-09-18T02:16:03.209Z,2.50
2018-09-18T02:17:03.189Z,2.40
2018-09-18T02:18:03.170Z,2.40
2018-09-18T02:19:03.153Z,2.30
2018-09-18T02:20:03.137Z,2.30
2018-09-18T02:21:03.118Z,2.40
2018-09-18T02:22:03.109Z,2.10
2018-09-18T02:23:03.084Z,2.60
2018-09-18T02:24:03.076Z,2.60
2018-09-18T02:25:03.050Z,2.40
2018-09-18T02:26:03.035Z,2.70
2018-09-18T02:27:03.013Z,2.40
2018-09-18T02:28:02.999Z,2.40
2018-09-18T02:29:02.985Z,2.50
2018-09-18T02:30:02.962Z,2.40
2018-09-18T02:31:02.946Z,2.30
2018-09-18T02:32:02.930Z,2.60
2018-09-18T02:33:02.916Z,2.60
2018-09-18T02:34:02.896Z,2.30
2018-09-18T02:35:02.876Z,2.40
2018-09-18T02:36:02.866Z,2.40
2018-09-18T02:37:02.845Z,2.50
2018-09-18T02:38:02.824Z,2.60
2018-09-18T02:39:02.810Z,2.50
2018-09-18T02:40:02.795Z,2.40
2018-09-18T02:41:02.770Z,2.60
2018-09-18T02:42:02.753Z,2.20
2018-09-18T02:43:02.740Z,2.60
2018-09-18T02:44:02.717Z,2.50
2018-09-18T02:45:02.706Z,2.40
2018-09-18T02:46:02.683Z,2.40
2018-09-18T02:47:02.668Z,2.50
2018-09-18T02:48:02.651Z,2.40
2018-09-18T02:49:02.634Z,2.40
2018-09-18T02:50:02.629Z,2.60
2018-09-18T02:51:02.599Z,2.40
2018-09-18T02:52:02.580Z,2.50
2018-09-18T02:53:02.564Z,2.50
2018-09-18T02:54:02.550Z,2.40
2018-09-18T02:55:02.526Z,2.70
2018-09-18T02:56:02.512Z,2.60
2018-09-18T02:57:02.509Z,2.60
2018-09-18T02:58:02.469Z,2.50
2018-09-18T02:59:02.451Z,2.90
2018-09-18T03:00:02.441Z,2.30
2018-09-18T03:01:02.423Z,2.40
2018-09-18T03:02:02.404Z,2.70
2018-09-18T03:03:02.392Z,2.40
2018-09-18T03:04:02.370Z,2.40
2018-09-18T03:05:02.350Z,2.70
2018-09-18T03:06:02.342Z,2.60
2018-09-18T03:07:02.321Z,2.40
2018-09-18T03:08:02.299Z,2.50
2018-09-18T03:09:02.286Z,2.70
2018-09-18T03:10:02.280Z,2.40
2018-09-18T03:11:02.268Z,2.90
2018-09-18T03:12:02.225Z,2.70
2018-09-18T03:13:02.215Z,2.60
2018-09-18T03:14:02.193Z,2.50
2018-09-18T03:15:02.183Z,2.90
2018-09-18T03:16:02.157Z,2.60
2018-09-18T03:17:02.144Z,2.20
2018-09-18T03:18:02.130Z,2.60
2018-09-18T03:19:02.123Z,2.70
2018-09-18T03:20:02.092Z,2.60
2018-09-18T03:21:02.124Z,2.60
2018-09-18T03:22:02.052Z,2.50
2018-09-18T03:23:02.035Z,2.80
2018-09-18T03:24:02.024Z,2.60
2018-09-18T03:25:02.008Z,2.50
2018-09-18T03:26:01.989Z,2.50
2018-09-18T03:27:01.977Z,2.70
2018-09-18T03:28:01.951Z,2.30
2018-09-18T03:29:01.937Z,2.40
2018-09-18T03:30:01.920Z,2.50
2018-09-18T03:31:01.902Z,2.40
2018-09-18T03:32:01.883Z,2.50
2018-09-18T03:33:01.868Z,2.80
2018-09-18T03:34:01.851Z,2.50
2018-09-18T03:35:01.836Z,2.60
2018-09-18T03:36:01.816Z,2.70
2018-09-18T03:37:01.798Z,2.70
2018-09-18T03:38:01.781Z,2.70
2018-09-18T03:39:01.764Z,2.60
2018-09-18T03:40:01.746Z,2.60
2018-09-18T03:41:01.736Z,3.00
2018-09-18T03:42:01.715Z,2.50
2018-09-18T03:43:01.698Z,2.50
2018-09-18T03:44:01.679Z,3.30
2018-09-18T03:45:01.668Z,2.50
2018-09-18T03:46:01.642Z,2.80
2018-09-18T03:47:01.624Z,2.50
2018-09-18T03:48:01.607Z,2.60
2018-09-18T03:49:01.586Z,2.60
2018-09-18T03:50:01.578Z,2.70
2018-09-18T03:51:01.559Z,2.50
2018-09-18T03:52:01.538Z,2.50
2018-09-18T03:53:01.524Z,2.80
2018-09-18T03:54:01.506Z,2.60
2018-09-18T03:55:01.485Z,2.30
2018-09-18T03:56:01.468Z,2.40
2018-09-18T03:57:01.450Z,2.60
2018-09-18T03:58:01.433Z,2.90
2018-09-18T03:59:01.417Z,3.00
2018-09-18T04:00:01.399Z,2.60
2018-09-18T04:01:01.383Z,2.60
2018-09-18T04:02:01.375Z,2.90
2018-09-18T04:03:01.444Z,2.60
2018-09-18T04:04:01.328Z,2.40
2018-09-18T04:05:01.310Z,2.60
2018-09-18T04:06:01.294Z,2.70
2018-09-18T04:07:01.281Z,2.60
2018-09-18T04:08:01.254Z,2.90
2018-09-18T04:09:01.243Z,3.20
2018-09-18T04:10:01.218Z,2.60
2018-09-18T04:11:01.206Z,2.80
2018-09-18T04:12:01.190Z,2.80
2018-09-18T04:13:01.174Z,2.70
2018-09-18T04:14:01.153Z,2.80
2018-09-18T04:15:01.139Z,2.60
2018-09-18T04:16:01.148Z,2.50
2018-09-18T04:17:01.105Z,2.60
2018-09-18T04:18:01.088Z,2.70
2018-09-18T04:19:01.077Z,2.80
2018-09-18T04:20:01.050Z,2.60
2018-09-18T04:21:01.034Z,2.60
2018-09-18T04:22:01.016Z,2.60
2018-09-18T04:23:00.999Z,2.90
2018-09-18T04:24:00.981Z,2.70
2018-09-18T04:25:00.965Z,2.60
2018-09-18T04:26:00.951Z,2.90
2018-09-18T04:27:00.925Z,2.60
2018-09-18T04:28:00.914Z,2.40
2018-09-18T04:29:00.896Z,2.60
2018-09-18T04:30:00.882Z,2.80
2018-09-18T04:31:00.859Z,2.80
2018-09-18T04:32:00.843Z,2.50
2018-09-18T04:33:00.828Z,2.50
2018-09-18T04:34:00.807Z,2.60
2018-09-18T04:35:00.789Z,2.80
2018-09-18T04:36:00.774Z,2.80
2018-09-18T04:37:00.755Z,2.70
2018-09-18T04:38:00.737Z,2.80
2018-09-18T04:39:00.726Z,2.70
2018-09-18T04:40:00.706Z,2.70
2018-09-18T04:41:00.690Z,2.90
2018-09-18T04:42:00.670Z,2.60
2018-09-18T04:43:00.655Z,2.60
2018-09-18T04:44:00.637Z,2.60
2018-09-18T04:45:00.617Z,3.00
2018-09-18T04:46:00.609Z,2.90
2018-09-18T04:47:00.585Z,2.60
2018-09-18T04:48:00.567Z,2.80
2018-09-18T04:49:00.546Z,2.80
2018-09-18T04:50:00.538Z,2.70
2018-09-18T04:51:00.514Z,2.70
2018-09-18T04:52:00.497Z,2.90
2018-09-18T04:53:00.472Z,2.80
2018-09-18T04:54:00.469Z,2.90
2018-09-18T04:55:00.544Z,2.70
2018-09-18T04:56:00.428Z,2.70
2018-09-18T04:57:00.410Z,2.60
2018-09-18T04:58:00.389Z,2.70
2018-09-18T04:59:00.377Z,2.40
2018-09-18T05:00:00.361Z,2.90
2018-09-18T05:01:00.337Z,2.40
2018-09-18T05:02:00.324Z,2.80
2018-09-18T05:03:00.305Z,2.70
2018-09-18T05:04:00.296Z,3.00
2018-09-18T05:05:00.274Z,2.50
2018-09-18T05:06:00.248Z,2.50
2018-09-18T05:07:00.239Z,3.00
2018-09-18T05:08:00.227Z,2.40
2018-09-18T05:09:00.203Z,3.10
2018-09-18T05:10:00.188Z,2.80
2018-09-18T05:11:00.172Z,2.70
2018-09-18T05:12:00.158Z,2.60
2018-09-18T05:13:00.125Z,2.50
2018-09-18T05:14:00.138Z,2.70
2018-09-18T05:15:00.100Z,2.50
2018-09-18T05:16:00.082Z,2.70
2018-09-18T05:17:00.070Z,2.50
2018-09-18T05:18:00.053Z,2.50
2018-09-18T05:19:00.030Z,2.90
2018-09-18T05:20:00.016Z,3.20
2018-09-18T05:21:00.002Z,2.70
2018-09-18T05:21:59.976Z,2.70
2018-09-18T05:22:59.957Z,2.50
2018-09-18T05:23:59.941Z,2.90
2018-09-18T05:24:59.930Z,2.60
2018-09-18T05:25:59.909Z,2.70
2018-09-18T05:26:59.891Z,2.90
2018-09-18T05:27:59.878Z,2.70
2018-09-18T05:28:59.861Z,2.70
2018-09-18T05:29:59.846Z,2.50
2018-09-18T05:30:59.823Z,2.70
2018-09-18T05:31:59.821Z,2.90
2018-09-18T05:32:59.790Z,2.90
2018-09-18T05:33:59.776Z,2.50
2018-09-18T05:34:59.758Z,2.80
2018-09-18T05:35:59.739Z,2.80
2018-09-18T05:36:59.723Z,2.60
2018-09-18T05:37:59.713Z,2.90
2018-09-18T05:38:59.688Z,2.50
2018-09-18T05:39:59.661Z,2.50
2018-09-18T05:40:59.652Z,3.00
2018-09-18T05:41:59.643Z,2.60
2018-09-18T05:42:59.639Z,3.10
2018-09-18T05:43:59.595Z,2.80
2018-09-18T05:44:59.594Z,2.20
2018-09-18T05:45:59.562Z,3.00
2018-09-18T05:46:59.547Z,2.40
2018-09-18T05:47:59.540Z,2.40
2018-09-18T05:48:59.514Z,3.00
2018-09-18T05:49:59.497Z,2.90
2018-09-18T05:50:59.483Z,3.00
2018-09-18T05:51:59.465Z,2.60
2018-09-18T05:52:59.443Z,3.00
2018-09-18T05:53:59.432Z,2.90
2018-09-18T05:54:59.416Z,2.80
2018-09-18T05:55:59.395Z,2.90
2018-09-18T05:56:59.380Z,2.50
2018-09-18T05:57:59.365Z,2.60
2018-09-18T05:58:59.346Z,2.90
2018-09-18T05:59:59.328Z,3.00
2018-09-18T06:00:59.311Z,2.90
2018-09-18T06:01:59.293Z,3.10
2018-09-18T06:02:59.276Z,3.10
2018-09-18T06:03:59.261Z,3.00
2018-09-18T06:04:59.244Z,3.10
2018-09-18T06:05:59.227Z,2.70
2018-09-18T06:06:59.212Z,2.70
2018-09-18T06:07:59.190Z,2.80
2018-09-18T06:08:59.172Z,3.30
2018-09-18T06:09:59.156Z,2.70
2018-09-18T06:10:59.140Z,2.90
2018-09-18T06:11:59.125Z,2.50
2018-09-18T06:12:59.111Z,2.90
2018-09-18T06:13:59.090Z,2.60
2018-09-18T06:14:59.072Z,2.90
2018-09-18T06:15:59.063Z,2.60
2018-09-18T06:16:59.040Z,2.80
2018-09-18T06:17:59.018Z,2.70
2018-09-18T06:18:59.012Z,2.80
2018-09-18T06:19:58.991Z,2.80
2018-09-18T06:20:58.974Z,2.80
2018-09-18T06:21:58.966Z,2.50
2018-09-18T06:22:58.938Z,2.70
2018-09-18T06:23:58.925Z,2.90
2018-09-18T06:24:58.908Z,3.20
2018-09-18T06:25:58.892Z,2.90
2018-09-18T06:26:58.875Z,3.10
2018-09-18T06:27:58.858Z,2.60
2018-09-18T06:28:58.840Z,2.90
2018-09-18T06:29:58.823Z,2.70
2018-09-18T06:30:58.807Z,3.20
2018-09-18T06:31:58.788Z,2.80
2018-09-18T06:32:58.776Z,2.90
2018-09-18T06:33:58.759Z,3.20
2018-09-18T06:34:58.742Z,2.90
2018-09-18T06:35:58.726Z,2.80
2018-09-18T06:36:58.740Z,2.60
2018-09-18T06:37:58.693Z,3.10
2018-09-18T06:38:58.678Z,2.90
2018-09-18T06:39:58.663Z,3.00
2018-09-18T06:40:58.647Z,2.80
2018-09-18T06:41:58.631Z,3.10
2018-09-18T06:42:58.617Z,2.60
2018-09-18T06:43:58.604Z,3.10
2018-09-18T06:44:58.586Z,3.10
2018-09-18T06:45:58.574Z,2.70
2018-09-18T06:46:58.559Z,2.50
2018-09-18T06:47:58.601Z,2.70
2018-09-18T06:48:58.528Z,2.70
2018-09-18T06:49:58.512Z,2.70
2018-09-18T06:50:58.501Z,2.70
2018-09-18T06:51:58.484Z,2.70
2018-09-18T06:52:58.478Z,3.00
2018-09-18T06:53:58.459Z,3.10
2018-09-18T06:54:58.445Z,2.80
2018-09-18T06:55:58.423Z,2.80
2018-09-18T06:56:58.414Z,2.90
2018-09-18T06:57:58.400Z,2.80
2018-09-18T06:58:58.388Z,2.70
2018-09-18T06:59:58.371Z,3.30
2018-09-18T07:00:58.358Z,2.90
2018-09-18T07:01:58.345Z,2.90
2018-09-18T07:02:58.330Z,3.10
2018-09-18T07:03:58.319Z,2.80
2018-09-18T07:04:58.305Z,3.00
2018-09-18T07:05:58.290Z,3.10
2018-09-18T07:06:58.281Z,3.10
2018-09-18T07:07:58.263Z,3.20
2018-09-18T07:08:58.249Z,3.20
2018-09-18T07:09:58.236Z,3.10
2018-09-18T07:10:58.224Z,2.80
2018-09-18T07:11:58.212Z,2.80
2018-09-18T07:12:58.207Z,3.00
2018-09-18T07:13:58.179Z,2.60
2018-09-18T07:14:58.167Z,3.00
2018-09-18T07:15:58.161Z,2.80
2018-09-18T07:16:58.153Z,2.80
2018-09-18T07:17:58.145Z,3.00
2018-09-18T07:18:58.122Z,2.80
2018-09-18T07:19:58.121Z,2.80
2018-09-18T07:20:58.093Z,3.00
2018-09-18T07:21:58.077Z,2.80
2018-09-18T07:22:58.067Z,3.10
2018-09-18T07:23:58.056Z,3.00
2018-09-18T07:24:58.146Z,3.00
2018-09-18T07:25:58.026Z,3.00
2018-09-18T07:26:58.015Z,3.10
2018-09-18T07:27:58.002Z,2.80
2018-09-18T07:28:57.994Z,3.00
2018-09-18T07:29:57.981Z,3.30
2018-09-18T07:30:57.962Z,2.70
2018-09-18T07:31:57.948Z,2.80
2018-09-18T07:32:57.937Z,2.80
2018-09-18T07:33:57.978Z,2.70
2018-09-18T07:34:57.911Z,3.00
2018-09-18T07:35:57.894Z,2.70
2018-09-18T07:36:57.879Z,2.70
2018-09-18T07:37:57.880Z,2.90
2018-09-18T07:38:57.854Z,3.20
2018-09-18T07:39:57.839Z,2.60
2018-09-18T07:40:57.845Z,2.90
2018-09-18T07:41:57.808Z,2.70
2018-09-18T07:42:57.813Z,2.70
2018-09-18T07:43:57.784Z,3.00
2018-09-18T07:44:57.775Z,2.60
2018-09-18T07:45:57.771Z,2.90
2018-09-18T07:46:57.961Z,3.50
2018-09-18T07:47:57.733Z,3.10
2018-09-18T07:48:57.740Z,3.00
2018-09-18T07:49:57.702Z,3.10
2018-09-18T07:50:57.747Z,2.70
2018-09-18T07:51:57.680Z,2.80
2018-09-18T07:52:57.656Z,3.20
2018-09-18T07:53:57.647Z,3.00
2018-09-18T07:54:57.638Z,2.80
2018-09-18T07:55:57.623Z,3.00
2018-09-18T07:56:57.610Z,3.10
2018-09-18T07:57:57.594Z,2.80
2018-09-18T07:58:57.582Z,2.90
2018-09-18T07:59:57.569Z,3.20
2018-09-18T08:00:57.554Z,3.30
2018-09-18T08:01:57.563Z,3.10
2018-09-18T08:02:57.530Z,3.20
2018-09-18T08:03:57.519Z,3.00
2018-09-18T08:04:57.771Z,3.20
2018-09-18T08:05:57.479Z,3.10
2018-09-18T08:06:57.759Z,3.40
2018-09-18T08:07:57.464Z,3.30
2018-09-18T08:08:57.445Z,3.10
2018-09-18T08:09:57.422Z,3.10
2018-09-18T08:10:57.507Z,3.20
2018-09-18T08:11:57.395Z,3.20
2018-09-18T08:12:57.389Z,3.00
2018-09-18T08:13:57.372Z,3.10
2018-09-18T08:14:57.569Z,3.30
2018-09-18T08:15:57.344Z,3.50
2018-09-18T08:16:57.950Z,2.90
2018-09-18T08:17:57.324Z,3.20
2018-09-18T08:18:57.447Z,3.30
2018-09-18T08:19:57.374Z,3.40
2018-09-18T08:20:57.276Z,3.20
2018-09-18T08:21:57.291Z,2.90
2018-09-18T08:22:57.265Z,3.10
2018-09-18T08:23:57.241Z,2.80
2018-09-18T08:24:57.640Z,3.00
2018-09-18T08:25:57.224Z,2.90
2018-09-18T08:26:57.198Z,3.10
2018-09-18T08:27:57.189Z,3.00
2018-09-18T08:28:57.175Z,3.10
2018-09-18T08:29:57.159Z,3.20
2018-09-18T08:30:57.195Z,3.00
2018-09-18T08:31:57.132Z,3.30
2018-09-18T08:32:57.231Z,3.10
2018-09-18T08:33:57.105Z,2.90
2018-09-18T08:34:57.096Z,3.20
2018-09-18T08:35:57.075Z,2.90
2018-09-18T08:36:57.063Z,3.20
2018-09-18T08:37:57.053Z,3.10
2018-09-18T08:38:57.057Z,3.40
2018-09-18T08:39:57.153Z,3.10
2018-09-18T08:40:57.013Z,3.00
2018-09-18T08:41:56.999Z,3.30
2018-09-18T08:42:57.062Z,2.90
2018-09-18T08:43:56.980Z,3.30
2018-09-18T08:44:56.970Z,3.20
2018-09-18T08:45:56.942Z,3.00
2018-09-18T08:46:56.954Z,3.00
2018-09-18T08:47:56.938Z,3.30
2018-09-18T08:48:56.912Z,3.20
2018-09-18T08:49:56.899Z,2.90
2018-09-18T08:50:56.911Z,3.10
2018-09-18T08:51:56.967Z,3.10
2018-09-18T08:52:56.962Z,2.80
2018-09-18T08:53:56.852Z,3.00
2018-09-18T08:54:56.839Z,2.80
2018-09-18T08:55:56.827Z,2.80
2018-09-18T08:56:56.823Z,3.00
2018-09-18T08:57:56.808Z,2.90
2018-09-18T08:58:56.803Z,3.20
2018-09-18T08:59:56.773Z,3.00
2018-09-18T09:00:56.754Z,2.90
2018-09-18T09:01:56.743Z,3.00
2018-09-18T09:02:56.730Z,2.70
2018-09-18T09:03:56.807Z,3.00
2018-09-18T09:04:56.713Z,3.00
2018-09-18T09:05:56.771Z,2.50
2018-09-18T09:06:56.711Z,2.70
2018-09-18T09:07:56.837Z,2.80
2018-09-18T09:08:56.909Z,3.10
2018-09-18T09:09:56.643Z,2.90
2018-09-18T09:10:56.639Z,2.80
2018-09-18T09:11:56.629Z,2.90
2018-09-18T09:12:56.622Z,2.80
2018-09-18T09:13:56.601Z,2.90
2018-09-18T09:14:56.600Z,2.70
2018-09-18T09:15:56.843Z,3.00
2018-09-18T09:16:56.565Z,3.00
2018-09-18T09:17:56.638Z,2.80
2018-09-18T09:18:56.576Z,3.10
2018-09-18T09:19:56.525Z,3.00
2018-09-18T09:20:56.605Z,3.10
2018-09-18T09:21:56.570Z,2.90
2018-09-18T09:22:56.612Z,2.90
2018-09-18T09:23:56.492Z,3.00
2018-09-18T09:24:56.466Z,3.00
2018-09-18T09:25:56.451Z,2.70
2018-09-18T09:26:56.501Z,3.00
2018-09-18T09:27:56.486Z,2.90
2018-09-18T09:28:56.430Z,2.90
2018-09-18T09:29:56.508Z,3.10
2018-09-18T09:30:56.393Z,2.90
2018-09-18T09:31:56.419Z,3.00
2018-09-18T09:32:56.376Z,3.40
2018-09-18T09:33:56.367Z,3.00
2018-09-18T09:34:56.381Z,2.70
2018-09-18T09:35:56.352Z,2.60
2018-09-18T09:36:56.353Z,2.80
2018-09-18T09:37:56.325Z,3.20
2018-09-18T09:38:56.356Z,2.90
2018-09-18T09:39:56.286Z,2.90
2018-09-18T09:40:56.290Z,3.00
2018-09-18T09:41:56.260Z,3.30
2018-09-18T09:42:56.251Z,2.80
2018-09-18T09:43:56.254Z,2.80
2018-09-18T09:44:56.235Z,3.20
2018-09-18T09:45:56.219Z,2.90
2018-09-18T09:46:56.203Z,3.10
2018-09-18T09:47:56.199Z,3.00
2018-09-18T09:48:56.182Z,2.80
2018-09-18T09:49:56.176Z,2.90
2018-09-18T09:50:56.154Z,3.10
2018-09-18T09:51:56.156Z,3.10
2018-09-18T09:52:56.469Z,3.00
2018-09-18T09:53:56.124Z,3.20
2018-09-18T09:54:56.112Z,3.60
2018-09-18T09:55:56.226Z,3.20
2018-09-18T09:56:56.268Z,3.30
2018-09-18T09:57:56.081Z,3.10
2018-09-18T09:58:56.899Z,3.00
2018-09-18T09:59:56.176Z,3.20
2018-09-18T10:00:57.008Z,3.10
2018-09-18T10:01:56.463Z,2.80
2018-09-18T10:02:56.512Z,2.70
2018-09-18T10:03:56.022Z,2.80
2018-09-18T10:04:56.001Z,3.10
2018-09-18T10:05:56.311Z,3.30
2018-09-18T10:06:56.282Z,2.80
2018-09-18T10:07:56.102Z,3.10
2018-09-18T10:08:55.963Z,3.40
2018-09-18T10:09:55.953Z,3.50
2018-09-18T10:10:56.027Z,3.20
2018-09-18T10:11:55.926Z,3.00
2018-09-18T10:12:55.992Z,3.20
2018-09-18T10:13:55.907Z,3.30
2018-09-18T10:14:55.892Z,2.90
2018-09-18T10:15:55.881Z,3.30
2018-09-18T10:16:55.870Z,3.20
2018-09-18T10:17:55.953Z,3.10
2018-09-18T10:18:55.847Z,3.10
2018-09-18T10:19:55.838Z,2.80
2018-09-18T10:20:55.852Z,3.10
2018-09-18T10:21:55.814Z,3.20
2018-09-18T10:22:55.803Z,3.10
2018-09-18T10:23:55.796Z,3.20
2018-09-18T10:24:55.794Z,3.20
2018-09-18T10:25:55.787Z,3.40
2018-09-18T10:26:55.847Z,3.60
2018-09-18T10:27:55.770Z,3.30
2018-09-18T10:28:55.745Z,3.20
2018-09-18T10:29:55.734Z,3.30
2018-09-18T10:30:55.757Z,3.40
2018-09-18T10:31:55.725Z,3.10
2018-09-18T10:32:55.756Z,3.40
2018-09-18T10:33:55.718Z,3.20
2018-09-18T10:34:55.701Z,3.30
2018-09-18T10:35:55.669Z,3.60
2018-09-18T10:36:55.677Z,3.20
2018-09-18T10:37:55.654Z,3.70
2018-09-18T10:38:55.643Z,3.30
2018-09-18T10:39:55.639Z,3.40
2018-09-18T10:40:55.811Z,3.30
2018-09-18T10:41:55.697Z,3.00
2018-09-18T10:42:55.703Z,3.50
2018-09-18T10:43:55.585Z,3.50
2018-09-18T10:44:55.592Z,3.20
2018-09-18T10:45:55.564Z,3.30
2018-09-18T10:46:55.555Z,3.70
2018-09-18T10:47:55.550Z,3.90
2018-09-18T10:48:55.526Z,3.00
2018-09-18T10:49:55.524Z,3.40
2018-09-18T10:50:55.521Z,3.60
2018-09-18T10:51:55.495Z,3.50
2018-09-18T10:52:55.485Z,3.40
2018-09-18T10:53:55.477Z,3.30
2018-09-18T10:54:55.462Z,3.30
2018-09-18T10:55:55.474Z,3.30
2018-09-18T10:56:55.442Z,3.50
2018-09-18T10:57:55.449Z,3.60
2018-09-18T10:58:55.424Z,3.50
2018-09-18T10:59:55.421Z,3.60
2018-09-18T11:00:55.459Z,3.40
2018-09-18T11:01:55.505Z,3.50
2018-09-18T11:02:55.377Z,3.50
2018-09-18T11:03:55.389Z,3.50
2018-09-18T11:04:55.361Z,3.60
2018-09-18T11:05:55.348Z,3.40
2018-09-18T11:06:55.424Z,3.40
2018-09-18T11:07:55.417Z,3.80
2018-09-18T11:08:55.430Z,3.30
2018-09-18T11:09:55.506Z,3.40
2018-09-18T11:10:55.294Z,3.20
2018-09-18T11:11:55.424Z,3.50
2018-09-18T11:12:55.460Z,3.40
2018-09-18T11:13:55.332Z,3.60
2018-09-18T11:14:55.317Z,3.30
2018-09-18T11:15:55.312Z,3.40
2018-09-18T11:16:55.363Z,3.60
2018-09-18T11:17:55.289Z,3.70
2018-09-18T11:18:55.239Z,3.60
2018-09-18T11:19:55.570Z,3.60
2018-09-18T11:20:55.733Z,3.30
2018-09-18T11:21:55.180Z,3.40
2018-09-18T11:22:55.514Z,3.70
2018-09-18T11:23:55.195Z,3.60
2018-09-18T11:24:55.444Z,3.50
2018-09-18T11:25:55.237Z,3.60
2018-09-18T11:26:55.155Z,3.60
2018-09-18T11:27:55.407Z,4.10
2018-09-18T11:28:55.119Z,3.60
2018-09-18T11:29:55.433Z,3.90
2018-09-18T11:30:55.100Z,3.70
2018-09-18T11:31:55.163Z,3.40
2018-09-18T11:32:55.168Z,3.50
2018-09-18T11:33:55.186Z,3.90
2018-09-18T11:34:55.063Z,3.70
2018-09-18T11:35:55.161Z,3.70
2018-09-18T11:36:55.028Z,3.60
2018-09-18T11:37:55.025Z,3.60
2018-09-18T11:38:55.005Z,3.90
2018-09-18T11:39:54.994Z,3.60
2018-09-18T11:40:55.047Z,3.60
2018-09-18T11:41:54.976Z,3.40
2018-09-18T11:42:54.983Z,3.70
2018-09-18T11:43:55.054Z,3.60
2018-09-18T11:44:55.007Z,3.40
2018-09-18T11:45:55.119Z,3.60
2018-09-18T11:46:54.930Z,3.70
2018-09-18T11:47:54.915Z,3.90
2018-09-18T11:48:54.907Z,3.90
2018-09-18T11:49:54.900Z,3.40
2018-09-18T11:50:54.890Z,3.90
2018-09-18T11:51:54.891Z,3.50
2018-09-18T11:52:54.953Z,3.40
2018-09-18T11:53:54.863Z,3.40
2018-09-18T11:54:54.898Z,3.70
2018-09-18T11:55:54.845Z,3.80
2018-09-18T11:56:55.212Z,3.60
2018-09-18T11:57:54.827Z,3.10
2018-09-18T11:58:54.810Z,3.40
2018-09-18T11:59:54.798Z,4.10
2018-09-18T12:00:54.813Z,3.10
2018-09-18T12:01:54.797Z,4.20
2018-09-18T12:02:54.883Z,3.80
2018-09-18T12:03:55.561Z,3.50
2018-09-18T12:04:54.759Z,3.40
2018-09-18T12:05:55.559Z,2.80
2018-09-18T12:06:54.743Z,3.30
2018-09-18T12:07:54.745Z,3.50
2018-09-18T12:08:54.730Z,3.30
2018-09-18T12:09:54.701Z,3.30
2018-09-18T12:10:54.723Z,3.10
2018-09-18T12:11:54.690Z,3.30
2018-09-18T12:12:54.683Z,3.10
2018-09-18T12:13:54.921Z,3.30
2018-09-18T12:14:54.653Z,3.10
2018-09-18T12:15:54.748Z,3.00
2018-09-18T12:16:54.963Z,3.00
2018-09-18T12:17:54.632Z,2.70
2018-09-18T12:18:54.630Z,3.00
2018-09-18T12:19:54.609Z,2.90
2018-09-18T12:20:54.597Z,2.90
2018-09-18T12:21:54.600Z,2.80
2018-09-18T12:22:54.597Z,2.80
2018-09-18T12:23:54.568Z,2.80
2018-09-18T12:24:54.637Z,2.60
2018-09-18T12:25:55.138Z,2.40
2018-09-18T12:26:54.543Z,2.70
2018-09-18T12:27:54.542Z,2.70
2018-09-18T12:28:54.543Z,2.50
2018-09-18T12:29:54.517Z,3.20
2018-09-18T12:30:54.507Z,2.90
2018-09-18T12:31:54.494Z,2.80
2018-09-18T12:32:54.525Z,3.20
2018-09-18T12:33:54.471Z,3.00
2018-09-18T12:34:54.486Z,2.80
2018-09-18T12:35:54.534Z,2.80
2018-09-18T12:36:54.446Z,3.00
2018-09-18T12:37:54.431Z,3.10
2018-09-18T12:38:54.426Z,2.80
2018-09-18T12:39:54.424Z,2.70
2018-09-18T12:40:54.418Z,2.80
2018-09-18T12:41:54.552Z,2.90
2018-09-18T12:42:54.437Z,2.90
2018-09-18T12:43:54.382Z,2.90
2018-09-18T12:44:54.380Z,3.20
2018-09-18T12:45:54.391Z,2.90
2018-09-18T12:46:54.352Z,3.10
2018-09-18T12:47:54.350Z,2.80
2018-09-18T12:48:54.405Z,2.70
2018-09-18T12:49:54.647Z,2.60
2018-09-18T12:50:54.351Z,2.70
2018-09-18T12:51:54.315Z,2.30
2018-09-18T12:52:54.293Z,2.50
2018-09-18T12:53:54.389Z,2.50
2018-09-18T12:54:54.282Z,2.60
2018-09-18T12:55:54.277Z,2.30
2018-09-18T12:56:54.378Z,2.40
2018-09-18T12:57:54.262Z,2.30
2018-09-18T12:58:54.329Z,2.40
2018-09-18T12:59:54.303Z,2.70
2018-09-18T13:00:54.229Z,2.50
2018-09-18T13:01:54.223Z,2.80
2018-09-18T13:02:54.220Z,2.50
2018-09-18T13:03:54.199Z,2.30
2018-09-18T13:04:54.191Z,2.60
2018-09-18T13:05:54.185Z,2.50
2018-09-18T13:06:54.223Z,2.40
2018-09-18T13:07:54.218Z,2.20
2018-09-18T13:08:54.150Z,2.40
2018-09-18T13:09:54.155Z,2.40
2018-09-18T13:10:54.136Z,2.20
2018-09-18T13:11:54.165Z,2.10
2018-09-18T13:12:54.136Z,2.20
2018-09-18T13:13:54.126Z,2.10
2018-09-18T13:14:54.105Z,2.50
2018-09-18T13:15:54.103Z,2.20
2018-09-18T13:16:54.081Z,2.10
2018-09-18T13:17:54.093Z,2.20